Time;durP1;ratioP1;P1;durP2;ratioP2;P2;SDS_P1;SDS_P2;PMS_P1;PMS_P2;Temp;Humidity;BMP_temperature;BMP_pressure;BME280_temperature;BME280_humidity;BME280_pressure;Samples;Min_cycle;Max_cycle;Signal;HPM_P1;HPM_P2
2023/04/06 00:01:41;;;;;;;8.53;5.40;;;11.40;99.90;;;;;;5010987;28;20634;-69
2023/04/06 00:04:07;;;;;;;6.93;5.13;;;10.70;99.90;;;;;;5011128;28;20194;-70
2023/04/06 00:06:33;;;;;;;8.07;5.20;;;10.80;99.90;;;;;;5003159;28;20186;-69
2023/04/06 00:08:59;;;;;;;6.67;5.10;;;10.80;99.90;;;;;;5011514;28;20690;-70
2023/04/06 00:11:25;;;;;;;8.13;4.50;;;10.80;99.90;;;;;;5011029;28;20190;-70
2023/04/06 00:13:51;;;;;;;5.63;4.43;;;10.80;99.90;;;;;;5011020;28;20190;-70
2023/04/06 00:16:17;;;;;;;6.03;4.43;;;10.80;99.90;;;;;;5010603;28;20222;-69
2023/04/06 00:18:42;;;;;;;5.70;4.80;;;10.90;99.90;;;;;;5011653;28;20198;-69
2023/04/06 00:21:08;;;;;;;5.67;3.90;;;10.90;99.90;;;;;;5011922;28;20220;-70
2023/04/06 00:23:34;;;;;;;5.53;4.13;;;;;;;;;;5010867;28;20637;-69
2023/04/06 00:26:00;;;;;;;6.60;4.37;;;10.90;99.90;;;;;;5008078;28;20629;-70
2023/04/06 00:28:26;;;;;;;5.70;3.80;;;10.90;99.90;;;;;;5011037;28;20178;-69
2023/04/06 00:30:55;;;;;;;5.43;4.27;;;10.80;99.90;;;;;;5011503;28;20174;-68
2023/04/06 00:33:21;;;;;;;5.27;4.07;;;10.80;99.90;;;;;;5011770;28;20557;-69
2023/04/06 00:35:47;;;;;;;8.17;3.83;;;10.80;99.90;;;;;;5011398;28;20210;-69
2023/04/06 00:38:13;;;;;;;5.60;4.23;;;;;;;;;;5011145;28;20265;-70
2023/04/06 00:40:41;;;;;;;7.20;4.50;;;10.80;99.90;;;;;;5011058;28;20187;-71
2023/04/06 00:43:08;;;;;;;6.40;4.63;;;10.80;99.90;;;;;;5010248;28;20175;-71
2023/04/06 00:45:34;;;;;;;7.10;4.50;;;10.80;99.90;;;;;;5010157;28;20202;-71
2023/04/06 00:48:01;;;;;;;5.47;4.57;;;10.80;99.90;;;;;;5009910;28;20221;-71
2023/04/06 00:50:27;;;;;;;7.40;4.60;;;10.80;99.90;;;;;;5010476;28;20186;-71
2023/04/06 00:52:54;;;;;;;7.73;5.07;;;10.90;99.90;;;;;;5010114;28;20201;-70
2023/04/06 00:55:20;;;;;;;6.17;4.90;;;10.80;99.90;;;;;;5010774;28;20225;-70
2023/04/06 00:57:46;;;;;;;7.00;4.30;;;10.80;99.90;;;;;;5010697;28;20178;-70
2023/04/06 01:00:13;;;;;;;6.37;4.40;;;10.90;99.90;;;;;;5007711;28;20240;-69
2023/04/06 01:02:39;;;;;;;4.90;4.20;;;10.90;99.90;;;;;;5010218;28;20232;-69
2023/04/06 01:05:05;;;;;;;6.50;4.30;;;10.90;99.90;;;;;;5009104;28;20653;-70
2023/04/06 01:07:31;;;;;;;6.97;4.43;;;10.90;99.90;;;;;;5009540;28;20390;-70
2023/04/06 01:09:57;;;;;;;6.43;3.67;;;10.90;99.90;;;;;;5010558;28;20664;-69
2023/04/06 01:12:23;;;;;;;4.43;3.90;;;10.90;99.90;;;;;;5009816;28;20289;-69
2023/04/06 01:14:49;;;;;;;5.33;3.67;;;11.10;99.90;;;;;;5010988;28;20280;-70
2023/04/06 01:17:15;;;;;;;6.73;3.60;;;10.90;99.90;;;;;;5009962;28;20928;-70
2023/04/06 01:19:41;;;;;;;5.90;3.50;;;10.90;99.90;;;;;;5010165;28;20186;-70
2023/04/06 01:22:06;;;;;;;5.17;2.63;;;10.90;99.90;;;;;;5009469;28;20265;-69
2023/04/06 01:24:32;;;;;;;3.37;3.07;;;11.00;99.90;;;;;;5010441;28;20212;-69
2023/04/06 01:26:58;;;;;;;4.53;3.10;;;11.00;99.90;;;;;;5010847;28;20661;-71
2023/04/06 01:29:24;;;;;;;4.83;3.00;;;11.00;99.90;;;;;;5009135;28;20270;-69
2023/04/06 01:31:49;;;;;;;5.03;2.63;;;11.00;99.90;;;;;;5010455;28;20186;-69
2023/04/06 01:34:16;;;;;;;4.40;3.10;;;11.00;99.90;;;;;;5009350;28;20261;-70
2023/04/06 01:36:41;;;;;;;4.20;3.20;;;11.00;99.90;;;;;;5009935;28;20269;-70
2023/04/06 01:39:07;;;;;;;6.50;3.70;;;11.00;99.90;;;;;;5008539;28;20871;-69
2023/04/06 01:41:33;;;;;;;4.43;3.77;;;11.00;99.90;;;;;;5009765;28;20186;-69
2023/04/06 01:43:58;;;;;;;4.27;3.47;;;10.90;99.90;;;;;;5010104;28;20178;-70
2023/04/06 01:46:24;;;;;;;3.90;3.40;;;11.00;99.90;;;;;;5009443;28;20182;-69
2023/04/06 01:48:50;;;;;;;3.87;3.30;;;11.00;99.90;;;;;;5009167;28;20790;-70
2023/04/06 01:51:15;;;;;;;9.10;3.77;;;11.00;99.90;;;;;;5009958;28;20228;-70
2023/04/06 01:53:41;;;;;;;2.80;2.30;;;;;;;;;;5010561;28;20186;-71
2023/04/06 01:56:07;;;;;;;2.57;2.30;;;11.00;99.90;;;;;;5009488;28;20207;-69
2023/04/06 01:58:33;;;;;;;2.40;2.20;;;11.00;99.90;;;;;;5009699;28;20601;-69
2023/04/06 02:00:59;;;;;;;3.03;2.53;;;11.00;99.90;;;;;;5009605;28;20174;-68
2023/04/06 02:03:24;;;;;;;2.60;2.30;;;11.00;99.90;;;;;;5008721;28;20229;-67
2023/04/06 02:05:50;;;;;;;2.10;1.90;;;10.90;99.90;;;;;;5008738;28;20198;-68
2023/04/06 02:08:16;;;;;;;1.90;1.80;;;11.00;99.90;;;;;;5008617;28;20261;-69
2023/04/06 02:10:41;;;;;;;1.80;1.40;;;10.50;99.90;;;;;;5009366;28;20410;-69
2023/04/06 02:13:07;;;;;;;1.53;1.10;;;10.90;99.90;;;;;;5010204;28;20182;-69
2023/04/06 02:15:32;;;;;;;2.43;1.10;;;10.70;99.90;;;;;;5009774;28;20214;-69
2023/04/06 02:17:59;;;;;;;2.70;1.10;;;10.70;99.90;;;;;;5008193;28;20189;-69
2023/04/06 02:20:25;;;;;;;0.80;0.73;;;10.70;99.90;;;;;;5009629;28;20190;-68
2023/04/06 02:22:50;;;;;;;3.63;0.80;;;10.60;99.90;;;;;;5008836;28;20676;-68
2023/04/06 02:25:16;;;;;;;2.50;0.70;;;10.60;99.90;;;;;;5009764;28;20197;-68
2023/04/06 02:27:42;;;;;;;5.03;1.20;;;10.60;99.90;;;;;;5009067;28;20178;-68
2023/04/06 02:30:08;;;;;;;3.10;1.07;;;10.70;99.90;;;;;;5009223;28;20294;-68
2023/04/06 02:32:34;;;;;;;1.20;0.83;;;10.50;99.90;;;;;;5009591;28;20209;-68
2023/04/06 02:35:00;;;;;;;2.67;0.87;;;10.50;99.90;;;;;;5009245;28;20633;-69
2023/04/06 02:37:25;;;;;;;2.53;0.73;;;10.40;99.90;;;;;;5008880;28;20186;-69
2023/04/06 02:39:51;;;;;;;1.27;0.60;;;;;;;;;;5009128;28;20680;-69
2023/04/06 02:42:17;;;;;;;3.13;0.83;;;10.40;99.90;;;;;;5009069;28;20277;-70
2023/04/06 02:44:43;;;;;;;1.17;0.60;;;10.30;99.90;;;;;;5008539;28;20299;-70
2023/04/06 02:47:09;;;;;;;4.83;0.90;;;10.30;99.90;;;;;;5007261;28;20859;-69
2023/04/06 02:49:34;;;;;;;3.17;0.90;;;10.40;99.90;;;;;;5008616;28;20607;-70
2023/04/06 02:52:00;;;;;;;4.67;1.00;;;10.30;99.90;;;;;;5011731;28;20317;-69
2023/04/06 02:54:26;;;;;;;6.63;0.97;;;10.30;99.90;;;;;;5012302;28;20214;-70
2023/04/06 02:56:51;;;;;;;5.07;0.80;;;10.20;99.90;;;;;;5013078;28;20197;-70
2023/04/06 02:59:17;;;;;;;3.03;0.90;;;10.20;99.90;;;;;;5012488;28;20189;-70
2023/04/06 03:01:43;;;;;;;2.33;0.73;;;10.20;99.90;;;;;;5012861;28;20645;-70
2023/04/06 03:04:08;;;;;;;4.17;0.70;;;10.20;99.90;;;;;;5010922;28;20229;-69
2023/04/06 03:06:34;;;;;;;2.67;0.60;;;10.10;99.90;;;;;;5008367;28;20579;-69
2023/04/06 03:08:59;;;;;;;2.97;0.50;;;10.10;99.90;;;;;;5012707;28;20254;-70
2023/04/06 03:11:26;;;;;;;1.43;0.47;;;;;;;;;;5011772;28;20263;-70
2023/04/06 03:13:52;;;;;;;2.37;0.50;;;10.10;99.90;;;;;;5011758;28;20236;-69
2023/04/06 03:16:17;;;;;;;2.73;0.67;;;10.00;99.90;;;;;;5011167;28;20684;-69
2023/04/06 03:18:44;;;;;;;3.23;0.87;;;10.00;99.90;;;;;;5012408;28;20177;-70
2023/04/06 03:21:10;;;;;;;2.90;0.60;;;10.00;99.90;;;;;;5011112;28;20183;-70
2023/04/06 03:23:36;;;;;;;8.47;0.90;;;10.00;99.90;;;;;;5010498;28;20273;-70
2023/04/06 03:26:02;;;;;;;3.33;0.60;;;10.00;99.90;;;;;;5010520;28;20194;-68
2023/04/06 03:28:28;;;;;;;3.03;0.77;;;10.10;99.90;;;;;;5010646;28;20189;-68
2023/04/06 03:30:53;;;;;;;2.53;0.60;;;10.10;99.90;;;;;;5006331;28;20257;-69
2023/04/06 03:33:19;;;;;;;5.57;1.00;;;9.80;99.90;;;;;;5008165;28;20581;-69
2023/04/06 03:35:45;;;;;;;6.50;1.20;;;;;;;;;;5010300;28;20211;-69
2023/04/06 03:38:10;;;;;;;5.07;1.20;;;10.10;99.90;;;;;;5004731;28;20597;-70
2023/04/06 03:40:36;;;;;;;8.37;1.57;;;10.10;99.90;;;;;;5006544;28;20191;-69
2023/04/06 03:43:02;;;;;;;9.87;2.07;;;10.40;99.90;;;;;;5007128;28;20190;-69
2023/04/06 03:45:27;;;;;;;10.53;2.20;;;10.20;99.90;;;;;;5011251;28;20216;-70
2023/04/06 03:47:53;;;;;;;15.40;2.40;;;10.20;99.90;;;;;;5010958;28;20187;-70
2023/04/06 03:50:19;;;;;;;10.20;2.13;;;10.20;99.90;;;;;;5010490;28;20182;-70
2023/04/06 03:52:45;;;;;;;13.87;2.47;;;10.10;99.90;;;;;;5010015;28;20235;-69
2023/04/06 03:55:11;;;;;;;14.07;2.53;;;;;;;;;;5010160;28;20270;-70
2023/04/06 03:57:37;;;;;;;14.30;2.43;;;10.30;99.90;;;;;;5011469;28;20193;-69
2023/04/06 04:00:04;;;;;;;13.50;2.60;;;10.30;99.90;;;;;;5011539;28;20181;-69
2023/04/06 04:02:30;;;;;;;13.93;2.43;;;;;;;;;;5009276;28;20171;-70
2023/04/06 04:04:55;;;;;;;13.73;2.60;;;10.30;99.90;;;;;;5009822;28;20191;-69
2023/04/06 04:07:21;;;;;;;16.97;2.77;;;10.30;99.90;;;;;;5010745;28;20233;-69
2023/04/06 04:09:46;;;;;;;19.40;3.07;;;10.30;99.90;;;;;;5010018;28;20217;-69
2023/04/06 04:12:14;;;;;;;12.37;2.30;;;10.30;99.90;;;;;;5012011;28;20178;-69
2023/04/06 04:14:40;;;;;;;15.67;2.60;;;;;;;;;;5010463;28;20626;-68
2023/04/06 04:17:06;;;;;;;14.07;2.30;;;10.20;99.90;;;;;;5011476;28;20268;-69
2023/04/06 04:19:31;;;;;;;21.10;2.60;;;10.20;99.90;;;;;;5011402;28;20258;-69
2023/04/06 04:21:57;;;;;;;15.13;2.60;;;;;;;;;;5011260;28;20715;-69
2023/04/06 04:24:23;;;;;;;18.57;2.93;;;10.60;99.90;;;;;;5010321;28;20261;-68
2023/04/06 04:26:49;;;;;;;13.73;2.53;;;10.20;99.90;;;;;;5011093;28;20679;-69
2023/04/06 04:29:15;;;;;;;21.70;3.03;;;10.20;99.90;;;;;;5009844;28;20182;-69
2023/04/06 04:31:40;;;;;;;24.10;3.37;;;10.20;99.90;;;;;;5011145;28;20197;-69
2023/04/06 04:34:06;;;;;;;18.37;3.00;;;10.10;99.90;;;;;;5010886;28;20657;-69
2023/04/06 04:36:32;;;;;;;22.10;3.27;;;10.20;99.90;;;;;;5010008;28;20190;-70
2023/04/06 04:38:58;;;;;;;22.60;3.37;;;10.20;99.90;;;;;;5010727;28;20186;-69
2023/04/06 04:41:24;;;;;;;21.37;3.17;;;10.30;99.90;;;;;;5011202;28;20216;-70
2023/04/06 04:43:49;;;;;;;25.00;3.33;;;10.20;99.90;;;;;;5009338;28;20198;-70
2023/04/06 04:46:15;;;;;;;28.73;3.13;;;10.30;99.90;;;;;;5010361;28;20193;-70
2023/04/06 04:48:41;;;;;;;16.90;2.10;;;10.30;99.90;;;;;;5010403;28;20190;-70
2023/04/06 04:51:06;;;;;;;15.23;2.43;;;10.30;99.90;;;;;;5008447;28;20237;-70
2023/04/06 04:53:32;;;;;;;17.00;2.80;;;10.20;99.90;;;;;;5011027;28;20187;-70
2023/04/06 04:55:57;;;;;;;22.20;2.80;;;10.30;99.90;;;;;;5010481;28;20325;-70
2023/04/06 04:58:23;;;;;;;18.33;2.73;;;10.30;99.90;;;;;;5010820;28;20261;-70
2023/04/06 05:00:49;;;;;;;14.07;2.37;;;10.30;99.90;;;;;;5010813;28;20183;-70
2023/04/06 05:03:21;;;;;;;9.23;1.73;;;10.20;99.90;;;;;;5010751;28;20629;-70
2023/04/06 05:05:46;;;;;;;16.30;2.67;;;10.50;99.90;;;;;;5006176;28;20190;-70
2023/04/06 05:08:12;;;;;;;18.10;3.00;;;10.20;99.90;;;;;;5009934;28;20178;-70
2023/04/06 05:10:38;;;;;;;20.33;3.50;;;10.20;99.90;;;;;;5009953;28;20182;-70
2023/04/06 05:13:03;;;;;;;22.63;3.90;;;10.20;99.90;;;;;;5009478;28;20194;-71
2023/04/06 05:15:29;;;;;;;25.80;3.97;;;10.20;99.90;;;;;;5009503;28;20300;-72
2023/04/06 05:17:55;;;;;;;21.67;3.60;;;10.20;99.90;;;;;;5009782;28;20182;-70
2023/04/06 05:20:21;;;;;;;25.13;4.40;;;10.30;99.90;;;;;;5010063;28;20178;-69
2023/04/06 05:22:46;;;;;;;28.63;4.47;;;10.30;99.90;;;;;;5009690;28;20182;-69
2023/04/06 05:25:13;;;;;;;24.53;4.63;;;10.40;99.90;;;;;;5003708;28;20193;-67
2023/04/06 05:27:39;;;;;;;32.13;4.07;;;10.20;99.90;;;;;;5010656;28;20269;-68
2023/04/06 05:30:06;;;;;;;23.73;4.60;;;10.30;99.90;;;;;;5010205;28;20261;-68
2023/04/06 05:32:31;;;;;;;35.57;5.27;;;10.40;99.90;;;;;;5009104;28;20189;-68
2023/04/06 05:34:57;;;;;;;26.20;4.60;;;10.30;99.90;;;;;;5008683;28;20582;-68
2023/04/06 05:37:23;;;;;;;23.20;4.63;;;10.40;99.90;;;;;;5009706;28;20679;-67
2023/04/06 05:39:49;;;;;;;21.17;4.23;;;;;;;;;;5009341;28;20707;-67
2023/04/06 05:42:15;;;;;;;20.57;4.27;;;10.30;99.90;;;;;;5009560;28;20213;-67
2023/04/06 05:44:41;;;;;;;23.13;5.00;;;10.30;99.90;;;;;;5009237;28;20209;-67
2023/04/06 05:47:07;;;;;;;23.20;4.93;;;;;;;;;;5010124;28;20198;-67
2023/04/06 05:49:32;;;;;;;21.63;6.00;;;10.10;99.90;;;;;;5010478;28;20178;-67
2023/04/06 05:51:58;;;;;;;23.70;6.53;;;10.40;99.90;;;;;;5008984;28;20222;-67
2023/04/06 05:54:24;;;;;;;30.17;6.40;;;10.20;99.90;;;;;;5009702;28;20184;-68
2023/04/06 05:56:49;;;;;;;25.03;7.10;;;10.40;99.90;;;;;;5008047;28;20563;-67
2023/04/06 05:59:15;;;;;;;24.77;7.27;;;10.50;99.90;;;;;;5009768;28;20664;-67
2023/04/06 06:01:41;;;;;;;28.30;7.50;;;10.50;99.90;;;;;;5007655;28;20269;-68
2023/04/06 06:04:06;;;;;;;23.17;6.30;;;10.40;99.90;;;;;;5010062;28;20171;-68
2023/04/06 06:06:32;;;;;;;22.97;7.03;;;10.50;99.90;;;;;;5009865;28;20700;-68
2023/04/06 06:09:01;;;;;;;24.03;6.83;;;10.50;99.90;;;;;;5008192;28;20171;-68
2023/04/06 06:11:27;;;;;;;18.03;5.67;;;10.40;99.90;;;;;;5007573;28;20179;-67
2023/04/06 06:13:52;;;;;;;20.80;6.57;;;10.40;99.90;;;;;;5009133;28;20185;-67
2023/04/06 06:16:19;;;;;;;26.67;6.40;;;9.70;99.90;;;;;;5007044;28;20293;-68
2023/04/06 06:18:45;;;;;;;17.00;5.57;;;;;;;;;;5009716;28;20187;-68
2023/04/06 06:21:12;;;;;;;18.93;5.70;;;10.40;99.90;;;;;;5009632;28;20179;-68
2023/04/06 06:23:38;;;;;;;24.03;6.70;;;10.50;99.90;;;;;;5010157;28;20637;-68
2023/04/06 06:26:04;;;;;;;20.37;6.53;;;;;;;;;;5011222;28;20261;-68
2023/04/06 06:28:30;;;;;;;28.97;7.43;;;10.50;99.90;;;;;;5013034;28;20170;-68
2023/04/06 06:30:56;;;;;;;25.17;8.00;;;10.60;99.90;;;;;;5013292;28;20186;-69
2023/04/06 06:33:22;;;;;;;24.40;8.77;;;10.50;99.90;;;;;;5012450;28;20240;-69
2023/04/06 06:35:47;;;;;;;21.77;9.33;;;10.60;99.90;;;;;;5013111;28;20724;-70
2023/04/06 06:38:13;;;;;;;31.57;10.27;;;10.60;99.90;;;;;;5012225;28;20183;-69
2023/04/06 06:40:40;;;;;;;31.57;10.30;;;10.70;99.90;;;;;;5009118;28;20190;-70
2023/04/06 06:43:06;;;;;;;26.73;11.13;;;;;;;;;;5012894;28;20215;-68
2023/04/06 06:45:31;;;;;;;27.30;11.10;;;10.90;99.90;;;;;;5011472;28;20588;-70
2023/04/06 06:47:57;;;;;;;31.27;11.63;;;11.20;99.90;;;;;;5007535;28;20275;-69
2023/04/06 06:50:23;;;;;;;31.67;11.20;;;11.50;99.90;;;;;;5009866;28;20543;-70
2023/04/06 06:52:49;;;;;;;29.50;9.03;;;;;;;;;;5012352;28;20675;-69
2023/04/06 06:55:15;;;;;;;34.07;10.87;;;11.30;99.90;;;;;;5012442;28;20206;-72
2023/04/06 06:57:42;;;;;;;27.23;10.00;;;11.40;99.90;;;;;;5012958;28;20641;-71
2023/04/06 07:00:08;;;;;;;25.73;10.17;;;11.40;99.90;;;;;;5012203;28;20178;-71
2023/04/06 07:02:35;;;;;;;21.10;9.53;;;11.30;99.90;;;;;;5012539;28;20197;-71
2023/04/06 07:05:01;;;;;;;32.10;9.47;;;11.10;99.90;;;;;;5011469;28;20186;-72
2023/04/06 07:07:27;;;;;;;23.57;8.77;;;11.20;99.90;;;;;;5011614;28;20176;-72
2023/04/06 07:09:53;;;;;;;25.20;8.77;;;;;;;;;;5012054;28;20529;-72
2023/04/06 07:12:18;;;;;;;18.20;7.93;;;11.10;99.90;;;;;;5013114;28;20185;-71
2023/04/06 07:14:44;;;;;;;19.30;7.43;;;11.10;99.90;;;;;;5012406;28;20214;-71
2023/04/06 07:17:10;;;;;;;19.67;6.77;;;11.10;99.90;;;;;;5012393;28;20193;-72
2023/04/06 07:19:36;;;;;;;16.60;5.67;;;11.00;99.90;;;;;;5012733;28;20657;-71
2023/04/06 07:22:03;;;;;;;20.90;6.63;;;11.00;99.90;;;;;;5010647;28;20179;-72
2023/04/06 07:24:28;;;;;;;16.70;5.90;;;10.90;99.90;;;;;;5012483;28;20261;-72
2023/04/06 07:26:56;;;;;;;13.33;4.83;;;11.00;99.90;;;;;;5012078;28;20633;-71
2023/04/06 07:29:22;;;;;;;18.43;5.10;;;10.80;99.90;;;;;;5011820;28;20257;-72
2023/04/06 07:31:49;;;;;;;15.47;4.30;;;;;;;;;;5012126;28;20181;-73
2023/04/06 07:34:15;;;;;;;13.70;3.87;;;10.80;99.90;;;;;;5012924;28;20637;-73
2023/04/06 07:36:40;;;;;;;15.03;4.57;;;10.80;99.90;;;;;;5011486;28;20281;-73
2023/04/06 07:39:07;;;;;;;16.83;4.80;;;10.70;99.90;;;;;;5011428;28;20186;-72
2023/04/06 07:41:32;;;;;;;13.50;5.83;;;10.80;99.90;;;;;;5011831;28;20210;-72
2023/04/06 07:43:58;;;;;;;13.77;5.40;;;10.60;99.90;;;;;;5011076;28;20236;-70
2023/04/06 07:46:24;;;;;;;19.30;6.27;;;10.70;99.90;;;;;;5011807;28;20528;-71
2023/04/06 07:48:51;;;;;;;17.73;7.50;;;10.80;99.90;;;;;;5011362;28;20190;-71
2023/04/06 07:51:17;;;;;;;14.53;7.10;;;10.70;99.90;;;;;;5012238;28;20244;-70
2023/04/06 07:53:44;;;;;;;17.40;7.60;;;10.80;99.90;;;;;;5010489;28;20881;-70
2023/04/06 07:56:10;;;;;;;15.30;7.67;;;11.00;99.90;;;;;;5010084;28;20705;-71
2023/04/06 07:58:36;;;;;;;15.93;6.80;;;11.10;99.90;;;;;;5010709;28;20174;-70
2023/04/06 08:01:02;;;;;;;13.20;6.07;;;11.20;99.90;;;;;;5011266;28;20584;-70
2023/04/06 08:03:27;;;;;;;15.30;5.00;;;11.20;99.90;;;;;;5010010;28;20199;-71
2023/04/06 08:05:53;;;;;;;12.93;4.97;;;11.20;99.90;;;;;;5008271;28;20257;-72
2023/04/06 08:08:21;;;;;;;18.50;5.47;;;11.50;99.90;;;;;;5010026;28;20210;-67
2023/04/06 08:10:49;;;;;;;11.77;4.80;;;11.30;99.90;;;;;;5010691;28;20178;-68
2023/04/06 08:13:16;;;;;;;14.80;4.60;;;11.50;99.90;;;;;;5011211;28;20183;-68
2023/04/06 08:15:41;;;;;;;14.60;4.77;;;11.60;99.90;;;;;;5009438;28;20758;-68
2023/04/06 08:18:08;;;;;;;16.97;4.77;;;12.60;99.90;;;;;;5010298;28;20178;-71
2023/04/06 08:20:34;;;;;;;16.63;5.03;;;13.90;99.90;;;;;;5009908;28;20202;-69
2023/04/06 08:23:00;;;;;;;16.92;5.30;;;13.80;99.90;;;;;;5011739;28;20170;-69
2023/04/06 08:25:26;;;;;;;14.40;5.63;;;13.50;99.90;;;;;;5011476;28;20193;-70
2023/04/06 08:27:51;;;;;;;16.08;5.35;;;13.60;99.90;;;;;;5011583;28;20174;-70
2023/04/06 08:30:18;;;;;;;15.95;5.20;;;14.40;99.90;;;;;;5010751;28;20191;-70
2023/04/06 08:32:47;;;;;;;15.05;4.68;;;15.10;99.90;;;;;;5011067;28;20175;-69
2023/04/06 08:35:13;;;;;;;14.57;5.45;;;14.60;99.90;;;;;;5006718;28;20220;-70
2023/04/06 08:37:39;;;;;;;12.98;4.82;;;13.50;99.90;;;;;;5011600;28;20209;-70
2023/04/06 08:40:05;;;;;;;8.95;3.45;;;13.70;99.90;;;;;;5008589;28;20206;-70
2023/04/06 08:42:40;;;;;;;13.13;3.53;;;14.20;99.90;;;;;;5009160;28;20175;-71
2023/04/06 08:45:06;;;;;;;7.32;2.90;;;16.10;99.90;;;;;;5010245;28;20212;-71
2023/04/06 08:47:33;;;;;;;14.73;2.85;;;16.60;99.90;;;;;;5009165;28;20258;-70
2023/04/06 08:50:04;;;;;;;7.03;2.20;;;15.10;99.90;;;;;;5008815;28;20179;-71
2023/04/06 08:52:32;;;;;;;9.32;2.60;;;15.30;99.90;;;;;;5010816;28;20297;-70
2023/04/06 08:54:57;;;;;;;8.60;2.55;;;15.50;99.90;;;;;;5010878;28;20210;-69
2023/04/06 08:57:24;;;;;;;17.13;3.60;;;14.90;99.90;;;;;;5009801;28;20170;-70
2023/04/06 08:59:51;;;;;;;10.90;2.47;;;14.50;99.90;;;;;;5009794;28;20295;-70
2023/04/06 09:02:18;;;;;;;15.38;3.03;;;14.90;99.90;;;;;;5008971;28;20187;-70
2023/04/06 09:04:47;;;;;;;8.15;2.33;;;16.50;99.90;;;;;;5002942;28;20183;-69
2023/04/06 09:07:14;;;;;;;12.73;2.58;;;16.60;99.90;;;;;;5009455;28;20178;-69
2023/04/06 09:09:47;;;;;;;15.25;2.80;;;17.90;99.90;;;;;;5009856;28;20178;-70
2023/04/06 09:12:22;;;;;;;16.00;2.63;;;18.30;99.90;;;;;;5010357;28;20186;-70
2023/04/06 09:14:48;;;;;;;9.07;2.10;;;18.90;99.90;;;;;;5003074;28;20225;-71
2023/04/06 09:17:27;;;;;;;4.30;1.58;;;18.10;99.90;;;;;;5010516;28;20641;-70
2023/04/06 09:19:53;;;;;;;8.32;1.75;;;17.60;99.90;;;;;;5003410;28;20181;-70
2023/04/06 09:22:19;;;;;;;8.23;2.40;;;17.80;99.90;;;;;;5010283;28;20215;-70
2023/04/06 09:24:50;;;;;;;9.45;2.00;;;18.20;99.90;;;;;;5002659;28;20640;-70
2023/04/06 09:27:16;;;;;;;10.57;2.00;;;18.20;99.90;;;;;;5010414;28;20179;-70
2023/04/06 09:29:44;;;;;;;6.15;1.20;;;19.30;99.90;;;;;;5010609;28;20186;-71
2023/04/06 09:32:11;;;;;;;6.82;1.60;;;20.70;99.90;;;;;;5010240;28;20186;-71
2023/04/06 09:34:38;;;;;;;9.55;1.55;;;20.40;99.90;;;;;;5010555;28;20214;-71
2023/04/06 09:37:20;;;;;;;11.82;2.05;;;20.20;99.90;;;;;;5010539;28;20201;-71
2023/04/06 09:39:46;;;;;;;5.95;1.30;;;20.50;99.90;;;;;;5010691;28;20183;-70
2023/04/06 09:42:24;;;;;;;6.25;1.50;;;21.00;99.90;;;;;;5010242;28;20209;-70
2023/04/06 09:44:50;;;;;;;6.60;1.48;;;;;;;;;;5001364;28;20596;-70
2023/04/06 09:47:17;;;;;;;6.38;1.55;;;17.40;99.90;;;;;;5010214;28;20178;-70
2023/04/06 09:49:44;;;;;;;8.25;1.73;;;17.00;99.90;;;;;;5009353;28;20229;-70
2023/04/06 09:52:12;;;;;;;8.75;1.77;;;16.30;99.90;;;;;;5010090;28;20333;-70
2023/04/06 09:54:38;;;;;;;8.50;1.75;;;15.90;99.90;;;;;;5010597;28;20198;-70
2023/04/06 09:57:11;;;;;;;9.00;1.85;;;14.80;99.90;;;;;;5010301;28;20178;-70
2023/04/06 09:59:55;;;;;;;8.70;1.77;;;14.50;99.90;;;;;;5011385;28;20178;-70
2023/04/06 10:02:27;;;;;;;10.75;2.03;;;14.60;99.90;;;;;;5014007;28;20256;-70
2023/04/06 10:05:04;;;;;;;9.70;2.05;;;14.60;99.90;;;;;;5014635;28;20177;-69
2023/04/06 10:07:31;;;;;;;10.40;2.38;;;14.60;99.90;;;;;;5014131;28;20205;-70
2023/04/06 10:09:58;;;;;;;14.82;2.40;;;14.50;99.90;;;;;;5014535;28;20193;-70
2023/04/06 10:12:24;;;;;;;11.10;2.38;;;14.60;99.90;;;;;;5014009;28;20201;-70
2023/04/06 10:14:50;;;;;;;14.48;2.38;;;14.60;99.90;;;;;;5014389;28;20202;-69
2023/04/06 10:17:15;;;;;;;13.38;2.70;;;14.40;99.90;;;;;;5014064;28;20281;-69
2023/04/06 10:19:41;;;;;;;14.73;2.90;;;14.30;99.90;;;;;;5014338;28;20253;-69
2023/04/06 10:22:10;;;;;;;18.92;3.70;;;14.10;99.90;;;;;;5014136;28;20182;-69
2023/04/06 10:24:36;;;;;;;17.85;3.78;;;14.10;99.90;;;;;;5010894;28;20304;-69
2023/04/06 10:27:03;;;;;;;13.10;3.63;;;15.00;99.90;;;;;;5013991;28;20269;-68
2023/04/06 10:29:40;;;;;;;15.68;4.20;;;16.40;99.90;;;;;;5013104;28;20174;-69
2023/04/06 10:32:05;;;;;;;12.88;3.20;;;16.60;99.90;;;;;;5013808;28;20178;-69
2023/04/06 10:34:35;;;;;;;17.27;4.07;;;18.00;99.90;;;;;;5013881;28;20201;-69
2023/04/06 10:37:14;;;;;;;14.38;3.35;;;18.40;99.90;;;;;;5013920;28;20201;-69
2023/04/06 10:39:55;;;;;;;12.40;3.38;;;19.40;99.90;;;;;;5010575;28;20324;-69
2023/04/06 10:42:25;;;;;;;10.00;2.35;;;18.00;99.90;;;;;;5013684;28;20236;-70
2023/04/06 10:44:51;;;;;;;8.88;1.95;;;;;;;;;;5012617;28;20178;-70
2023/04/06 10:47:17;;;;;;;18.15;3.22;;;17.70;99.90;;;;;;5013756;28;20183;-69
2023/04/06 10:49:43;;;;;;;18.02;3.40;;;17.40;99.90;;;;;;5013835;28;20209;-69
2023/04/06 10:52:09;;;;;;;11.85;2.72;;;16.60;99.90;;;;;;5013463;28;20696;-70
2023/04/06 10:54:41;;;;;;;13.80;2.35;;;16.60;99.90;;;;;;5013429;28;20260;-69
2023/04/06 10:57:07;;;;;;;15.27;2.50;;;14.70;99.90;;;;;;5013289;28;20183;-70
2023/04/06 10:59:32;;;;;;;18.77;3.05;;;14.70;99.90;;;;;;5013522;28;20249;-70
2023/04/06 11:01:58;;;;;;;9.65;2.25;;;;;;;;;;5013569;28;20186;-69
2023/04/06 11:04:25;;;;;;;7.70;1.88;;;13.60;99.90;;;;;;5013156;28;20186;-69
2023/04/06 11:06:50;;;;;;;12.07;2.25;;;13.30;99.90;;;;;;5013447;28;20246;-70
2023/04/06 11:09:28;;;;;;;9.70;1.20;;;13.90;99.90;;;;;;5012953;28;20500;-70
2023/04/06 11:11:55;;;;;;;4.53;0.88;;;15.20;99.90;;;;;;5005582;28;20197;-70
2023/04/06 11:14:21;;;;;;;12.15;1.13;;;16.60;99.90;;;;;;5012798;28;20186;-70
2023/04/06 11:16:50;;;;;;;3.13;0.90;;;16.80;99.90;;;;;;5011935;28;20189;-70
2023/04/06 11:19:16;;;;;;;4.80;1.02;;;17.50;99.90;;;;;;5012810;28;20245;-70
2023/04/06 11:21:47;;;;;;;7.70;1.73;;;17.90;99.90;;;;;;5012541;28;20249;-69
2023/04/06 11:24:24;;;;;;;9.85;2.00;;;17.90;99.90;;;;;;5012820;28;20569;-70
2023/04/06 11:26:56;;;;;;;10.07;2.50;;;17.90;99.90;;;;;;5004942;28;20193;-69
2023/04/06 11:29:26;;;;;;;7.93;2.28;;;18.30;99.90;;;;;;5011152;28;20184;-70
2023/04/06 11:32:00;;;;;;;12.45;2.30;;;18.80;99.90;;;;;;5003179;28;20554;-70
2023/04/06 11:34:28;;;;;;;10.23;2.47;;;19.00;99.90;;;;;;5009653;28;20669;-70
2023/04/06 11:37:02;;;;;;;9.48;2.15;;;19.60;99.90;;;;;;5012239;28;20229;-70
2023/04/06 11:39:30;;;;;;;14.95;2.80;;;19.90;99.90;;;;;;5011174;28;20182;-70
2023/04/06 11:41:59;;;;;;;12.05;3.15;;;19.90;99.90;;;;;;5012764;28;20604;-70
2023/04/06 11:44:36;;;;;;;10.45;1.92;;;19.90;99.90;;;;;;5012320;28;20204;-71
2023/04/06 11:47:07;;;;;;;9.13;2.17;;;20.50;99.90;;;;;;5004866;28;20178;-71
2023/04/06 11:49:36;;;;;;;10.90;2.05;;;20.90;99.90;;;;;;5011198;28;20178;-71
2023/04/06 11:52:02;;;;;;;6.20;1.75;;;21.00;99.90;;;;;;5005571;28;20895;-70
2023/04/06 11:54:36;;;;;;;5.68;1.60;;;21.30;99.90;;;;;;5009375;28;20171;-70
2023/04/06 11:57:03;;;;;;;6.88;1.50;;;21.30;99.90;;;;;;5007974;28;20217;-69
2023/04/06 11:59:29;;;;;;;7.32;1.48;;;21.60;99.90;;;;;;5011140;28;20174;-70
2023/04/06 12:01:56;;;;;;;8.07;1.63;;;21.40;99.90;;;;;;5011610;28;20189;-71
2023/04/06 12:04:22;;;;;;;7.28;2.10;;;20.40;99.90;;;;;;5011623;28;20179;-70
2023/04/06 12:06:48;;;;;;;12.32;2.05;;;19.50;99.90;;;;;;5012352;28;20633;-70
2023/04/06 12:09:14;;;;;;;10.55;2.22;;;19.80;99.90;;;;;;5011507;28;20178;-70
2023/04/06 12:11:40;;;;;;;14.02;2.47;;;;;;;;;;5011640;28;20171;-69
2023/04/06 12:14:07;;;;;;;7.63;1.70;;;18.60;99.90;;;;;;5011282;28;20178;-69
2023/04/06 12:16:34;;;;;;;6.38;1.20;;;18.90;99.90;;;;;;5011680;28;20313;-69
2023/04/06 12:19:00;;;;;;;11.40;2.22;;;19.90;99.90;;;;;;5011962;28;20254;-69
2023/04/06 12:21:28;;;;;;;10.85;1.92;;;20.20;99.90;;;;;;5011222;28;20607;-70
2023/04/06 12:23:54;;;;;;;10.57;2.33;;;20.10;99.90;;;;;;5003936;28;20181;-70
2023/04/06 12:26:20;;;;;;;10.25;2.05;;;20.90;99.90;;;;;;5010778;28;20234;-70
2023/04/06 12:28:45;;;;;;;9.20;1.92;;;21.00;99.90;;;;;;5011976;28;20185;-69
2023/04/06 12:31:15;;;;;;;14.00;2.72;;;21.20;99.90;;;;;;5009442;28;20183;-69
2023/04/06 12:33:41;;;;;;;11.20;2.40;;;20.20;99.90;;;;;;5011121;28;20178;-69
2023/04/06 12:36:15;;;;;;;11.82;2.35;;;20.20;99.90;;;;;;5010893;28;20241;-69
2023/04/06 12:38:41;;;;;;;8.68;1.77;;;19.20;99.90;;;;;;5010347;28;20547;-69
2023/04/06 12:41:07;;;;;;;7.65;1.50;;;19.00;99.90;;;;;;5011313;28;20214;-69
2023/04/06 12:43:33;;;;;;;6.18;1.10;;;19.60;99.90;;;;;;5010769;28;20592;-69
2023/04/06 12:45:59;;;;;;;6.65;1.38;;;19.40;99.90;;;;;;5010108;28;20691;-71